Time;durP1;ratioP1;P1;durP2;ratioP2;P2;SDS_P1;SDS_P2;PMS_P1;PMS_P2;Temp;Humidity;BMP_temperature;BMP_pressure;BME280_temperature;BME280_humidity;BME280_pressure;Samples;Min_cycle;Max_cycle;Signal;HPM_P1;HPM_P2
2023/12/13 00:01:38;;;;;;;0.68;0.50;;;9.10;99.90;;;;;;4944330;29;20082;-78
2023/12/13 00:04:03;;;;;;;3.50;0.50;;;9.10;99.90;;;;;;4939805;29;20061;-77
2023/12/13 00:06:29;;;;;;;0.85;0.45;;;9.10;99.90;;;;;;4944003;29;20032;-77
2023/12/13 00:08:55;;;;;;;3.92;0.80;;;9.00;99.90;;;;;;4933842;29;20020;-77
2023/12/13 00:11:21;;;;;;;0.90;0.43;;;9.10;99.90;;;;;;4924293;29;20255;-78
2023/12/13 00:13:47;;;;;;;6.45;1.10;;;9.30;99.90;;;;;;4923891;29;20265;-78
2023/12/13 00:16:13;;;;;;;2.92;0.55;;;9.10;99.90;;;;;;4924646;29;20043;-76
2023/12/13 00:18:38;;;;;;;5.45;0.50;;;9.10;99.90;;;;;;4921069;29;20040;-76
2023/12/13 00:21:04;;;;;;;1.60;0.60;;;9.10;99.90;;;;;;4922504;29;20020;-76
2023/12/13 00:23:30;;;;;;;2.70;2.00;;;9.00;99.90;;;;;;4921890;29;20027;-76
2023/12/13 00:25:55;;;;;;;2.70;0.90;;;9.00;99.90;;;;;;4918368;29;20105;-76
2023/12/13 00:28:21;;;;;;;3.08;0.68;;;9.00;99.90;;;;;;4922663;29;20035;-77
2023/12/13 00:30:49;;;;;;;2.08;0.88;;;9.00;99.90;;;;;;4922945;29;20032;-77
2023/12/13 00:33:14;;;;;;;2.95;0.75;;;9.10;99.90;;;;;;4925228;29;20107;-76
2023/12/13 00:35:40;;;;;;;4.78;0.60;;;9.20;99.90;;;;;;4921596;29;20028;-76
2023/12/13 00:38:05;;;;;;;3.67;0.60;;;9.20;99.90;;;;;;4922343;29;20040;-76
2023/12/13 00:40:31;;;;;;;1.80;0.50;;;9.30;99.90;;;;;;4923667;29;20024;-76
2023/12/13 00:43:01;;;;;;;0.50;0.30;;;9.30;99.90;;;;;;4923834;29;20095;-78
2023/12/13 00:45:26;;;;;;;5.50;0.68;;;9.40;99.90;;;;;;4924824;29;20817;-77
2023/12/13 00:47:52;;;;;;;2.08;0.20;;;9.50;99.90;;;;;;4925478;29;20039;-76
2023/12/13 00:50:18;;;;;;;0.22;0.20;;;9.40;99.90;;;;;;4922895;29;20035;-77
2023/12/13 00:52:43;;;;;;;3.70;0.35;;;9.40;99.90;;;;;;4925169;29;20032;-77
2023/12/13 00:55:09;;;;;;;0.60;0.40;;;9.30;99.90;;;;;;4923164;29;20056;-77
2023/12/13 00:57:35;;;;;;;3.65;0.57;;;9.20;99.90;;;;;;4921863;29;20044;-77
2023/12/13 01:00:01;;;;;;;2.53;0.50;;;9.20;99.90;;;;;;4922929;29;20024;-77
2023/12/13 01:02:27;;;;;;;0.52;0.20;;;9.20;99.90;;;;;;4922881;29;20036;-77
2023/12/13 01:04:54;;;;;;;0.20;0.20;;;9.20;99.90;;;;;;4922601;29;20031;-77
2023/12/13 01:07:20;;;;;;;6.72;0.50;;;9.20;99.90;;;;;;4922888;29;20024;-77
2023/12/13 01:09:45;;;;;;;0.55;0.47;;;9.10;99.90;;;;;;4925345;29;20027;-76
2023/12/13 01:12:13;;;;;;;0.60;0.40;;;9.00;99.90;;;;;;4922553;29;20028;-77
2023/12/13 01:14:39;;;;;;;3.55;0.60;;;8.90;99.90;;;;;;4924197;29;20044;-79
2023/12/13 01:17:04;;;;;;;0.65;0.30;;;8.90;99.90;;;;;;4926015;29;20332;-77
2023/12/13 01:19:31;;;;;;;1.75;0.85;;;8.80;99.90;;;;;;4924018;29;20036;-76
2023/12/13 01:21:57;;;;;;;1.05;0.50;;;8.80;99.90;;;;;;4925351;29;20023;-78
2023/12/13 01:24:23;;;;;;;2.13;0.70;;;8.70;99.90;;;;;;4926860;29;20032;-79
2023/12/13 01:26:49;;;;;;;2.47;0.40;;;8.70;99.90;;;;;;4926023;29;20299;-77
2023/12/13 01:29:14;;;;;;;2.08;0.30;;;8.70;99.90;;;;;;4922550;29;20327;-77
2023/12/13 01:31:40;;;;;;;6.68;1.30;;;8.80;99.90;;;;;;4922226;29;20079;-76
2023/12/13 01:34:06;;;;;;;1.35;0.30;;;8.80;99.90;;;;;;4923168;29;20328;-78
2023/12/13 01:36:39;;;;;;;0.40;0.30;;;8.70;99.90;;;;;;4921872;29;20046;-77
2023/12/13 01:39:06;;;;;;;3.83;0.60;;;8.70;99.90;;;;;;4921581;29;20060;-76
2023/12/13 01:41:31;;;;;;;0.70;0.40;;;8.60;99.90;;;;;;4922428;29;20055;-76
2023/12/13 01:43:57;;;;;;;2.53;0.90;;;8.70;99.90;;;;;;4921826;29;20040;-77
2023/12/13 01:46:23;;;;;;;1.17;0.50;;;8.70;99.90;;;;;;4921150;29;20048;-77
2023/12/13 01:48:52;;;;;;;7.70;0.60;;;8.50;99.90;;;;;;4921544;29;20034;-77
2023/12/13 01:51:18;;;;;;;1.27;0.93;;;9.60;99.90;;;;;;4919823;29;20268;-77
2023/12/13 01:53:44;;;;;;;3.92;0.60;;;8.40;99.90;;;;;;4922974;29;20028;-78
2023/12/13 01:56:11;;;;;;;3.85;0.50;;;8.30;99.90;;;;;;4929143;29;20038;-79
2023/12/13 01:58:38;;;;;;;1.88;0.40;;;8.10;99.90;;;;;;4941816;29;20063;-77
2023/12/13 02:01:08;;;;;;;3.75;0.60;;;8.10;99.90;;;;;;4940472;29;20027;-77
2023/12/13 02:03:35;;;;;;;0.25;0.22;;;7.90;99.90;;;;;;4942387;29;20121;-78
2023/12/13 02:06:02;;;;;;;3.35;0.40;;;7.70;99.90;;;;;;4943057;29;20063;-77
2023/12/13 02:08:28;;;;;;;3.63;0.55;;;7.50;99.90;;;;;;4942547;29;20028;-77
2023/12/13 02:10:53;;;;;;;2.10;0.45;;;7.60;99.90;;;;;;4939919;29;20823;-77
2023/12/13 02:13:19;;;;;;;7.10;0.63;;;7.70;99.90;;;;;;4940555;29;20049;-75
2023/12/13 02:15:45;;;;;;;6.55;1.05;;;7.70;99.90;;;;;;4943692;29;20040;-76
2023/12/13 02:18:11;;;;;;;1.73;0.50;;;7.70;99.90;;;;;;4939811;29;20115;-78
2023/12/13 02:20:37;;;;;;;4.72;0.60;;;7.90;99.90;;;;;;4940904;29;20024;-78
2023/12/13 02:23:03;;;;;;;4.75;0.65;;;8.10;99.90;;;;;;4941104;29;20042;-75
2023/12/13 02:25:59;;;;;;;1.02;0.60;;;8.20;99.90;;;;;;4941871;29;20255;-78
2023/12/13 02:28:25;;;;;;;2.38;0.35;;;8.30;99.90;;;;;;4939167;29;20038;-78
2023/12/13 02:30:54;;;;;;;2.20;0.50;;;8.40;99.90;;;;;;4944199;29;20020;-78
2023/12/13 02:33:40;;;;;;;1.80;0.43;;;8.80;99.90;;;;;;4940616;29;20023;-77
2023/12/13 02:36:07;;;;;;;1.02;0.45;;;8.90;99.90;;;;;;4941054;29;20065;-77
2023/12/13 02:38:33;;;;;;;1.75;0.38;;;9.10;99.90;;;;;;4942147;29;20098;-76
2023/12/13 02:40:58;;;;;;;0.75;0.47;;;9.30;99.90;;;;;;4941231;29;20330;-76
2023/12/13 02:43:24;;;;;;;0.20;0.20;;;9.30;99.90;;;;;;4945384;29;20478;-75
2023/12/13 02:45:50;;;;;;;4.43;0.40;;;9.40;99.90;;;;;;4944000;29;20055;-78
2023/12/13 02:48:16;;;;;;;2.22;0.47;;;9.40;99.90;;;;;;4943850;29;20039;-78
2023/12/13 02:50:42;;;;;;;2.47;0.68;;;9.40;99.90;;;;;;4935669;29;20088;-74
2023/12/13 02:53:07;;;;;;;5.45;0.80;;;9.40;99.90;;;;;;4922988;29;20028;-76
2023/12/13 02:55:35;;;;;;;1.17;0.43;;;9.40;99.90;;;;;;4923678;29;20034;-77
2023/12/13 02:58:01;;;;;;;5.28;1.05;;;9.10;99.90;;;;;;4922512;29;20040;-78
2023/12/13 03:00:27;;;;;;;3.20;0.47;;;9.40;99.90;;;;;;4919799;29;20100;-75
2023/12/13 03:02:53;;;;;;;1.20;0.50;;;9.40;99.90;;;;;;4923729;29;20032;-75
2023/12/13 03:05:18;;;;;;;1.85;0.40;;;9.40;99.90;;;;;;4922354;29;20252;-77
2023/12/13 03:07:45;;;;;;;1.50;0.75;;;9.40;99.90;;;;;;4923436;29;20312;-78
2023/12/13 03:10:11;;;;;;;1.48;0.50;;;9.40;99.90;;;;;;4924451;29;20034;-77
2023/12/13 03:12:36;;;;;;;2.75;0.47;;;9.50;99.90;;;;;;4921367;29;20032;-75
2023/12/13 03:15:02;;;;;;;1.05;0.50;;;9.40;99.90;;;;;;4924430;29;20111;-78
2023/12/13 03:17:28;;;;;;;3.40;0.50;;;9.40;99.90;;;;;;4923377;29;20205;-75
2023/12/13 03:19:54;;;;;;;6.45;0.95;;;9.40;99.90;;;;;;4923697;29;20185;-75
2023/12/13 03:22:19;;;;;;;4.35;0.75;;;9.40;99.90;;;;;;4919563;29;20036;-76
2023/12/13 03:24:45;;;;;;;2.60;0.47;;;9.40;99.90;;;;;;4917767;29;20501;-75
2023/12/13 03:27:10;;;;;;;1.02;0.32;;;9.40;99.90;;;;;;4922790;29;20059;-74
2023/12/13 03:29:36;;;;;;;3.33;0.63;;;9.30;99.90;;;;;;4919753;29;20048;-75
2023/12/13 03:32:02;;;;;;;2.45;0.32;;;9.30;99.90;;;;;;4919431;29;20033;-76
2023/12/13 03:34:27;;;;;;;1.38;0.50;;;9.30;99.90;;;;;;4922368;29;20035;-77
2023/12/13 03:36:53;;;;;;;1.45;0.43;;;9.40;99.90;;;;;;4922479;29;20028;-76
2023/12/13 03:39:19;;;;;;;0.40;0.40;;;9.20;99.90;;;;;;4926656;29;20088;-75
2023/12/13 03:41:44;;;;;;;2.03;0.52;;;9.20;99.90;;;;;;4924617;29;20020;-76
2023/12/13 03:44:10;;;;;;;1.83;0.40;;;9.30;99.90;;;;;;4927076;29;20028;-77
2023/12/13 03:46:36;;;;;;;1.85;1.10;;;9.30;99.90;;;;;;4922626;29;20278;-76
2023/12/13 03:49:02;;;;;;;2.83;1.42;;;9.20;99.90;;;;;;4928010;29;20056;-75
2023/12/13 03:51:27;;;;;;;1.27;0.65;;;9.20;99.90;;;;;;4928810;29;20032;-78
2023/12/13 03:53:53;;;;;;;1.15;0.25;;;9.10;99.90;;;;;;4926186;29;20024;-75
2023/12/13 03:56:18;;;;;;;9.38;1.15;;;9.10;99.90;;;;;;4928051;29;20038;-76
2023/12/13 03:58:44;;;;;;;2.15;0.40;;;9.10;99.90;;;;;;4926382;29;20088;-74
2023/12/13 04:01:11;;;;;;;2.40;0.70;;;9.10;99.90;;;;;;4928564;29;20031;-76
2023/12/13 04:03:37;;;;;;;1.65;0.40;;;9.10;99.90;;;;;;4928364;29;20061;-75
2023/12/13 04:06:03;;;;;;;0.20;0.20;;;9.20;99.90;;;;;;4929720;29;20021;-75
2023/12/13 04:08:29;;;;;;;2.20;0.55;;;9.20;99.90;;;;;;4936774;29;20047;-76
2023/12/13 04:10:54;;;;;;;1.55;0.30;;;9.20;99.90;;;;;;4947700;29;20027;-77
2023/12/13 04:13:20;;;;;;;2.63;0.50;;;9.20;99.90;;;;;;4946785;29;20039;-79
2023/12/13 04:15:46;;;;;;;0.50;0.40;;;9.20;99.90;;;;;;4946020;29;20134;-75
2023/12/13 04:18:12;;;;;;;0.95;0.10;;;9.20;99.90;;;;;;4944584;29;20063;-76
2023/12/13 04:20:37;;;;;;;0.22;0.20;;;9.20;99.90;;;;;;4943054;29;20059;-78
2023/12/13 04:23:03;;;;;;;0.22;0.10;;;9.20;99.90;;;;;;4944901;29;20028;-75
2023/12/13 04:25:29;;;;;;;0.10;0.10;;;9.30;99.90;;;;;;4943798;29;20047;-76
2023/12/13 04:27:55;;;;;;;0.40;0.40;;;9.30;99.90;;;;;;4947880;29;20019;-78
2023/12/13 04:30:20;;;;;;;2.88;0.32;;;9.20;99.90;;;;;;4946813;29;20019;-75
2023/12/13 04:32:46;;;;;;;0.45;0.20;;;9.00;99.90;;;;;;4945399;29;20035;-79
2023/12/13 04:35:12;;;;;;;0.45;0.45;;;8.90;99.90;;;;;;4946675;29;20015;-78
2023/12/13 04:37:40;;;;;;;2.13;0.30;;;8.80;99.90;;;;;;4946521;29;20223;-79
2023/12/13 04:40:07;;;;;;;1.10;0.40;;;8.80;99.90;;;;;;4945916;29;20024;-74
2023/12/13 04:42:33;;;;;;;0.73;0.30;;;8.80;99.90;;;;;;4947153;29;20094;-79
2023/12/13 04:44:59;;;;;;;0.30;0.30;;;8.70;99.90;;;;;;4942428;29;20494;-76
2023/12/13 04:47:25;;;;;;;0.52;0.20;;;8.70;99.90;;;;;;4947520;29;20030;-80
2023/12/13 04:49:51;;;;;;;0.70;0.40;;;8.70;99.90;;;;;;4915523;29;20054;-73
2023/12/13 04:52:17;;;;;;;0.98;0.30;;;8.80;99.90;;;;;;4915373;29;20367;-74
2023/12/13 04:54:42;;;;;;;0.73;0.70;;;8.80;99.90;;;;;;4914783;29;20031;-72
2023/12/13 04:57:08;;;;;;;1.17;0.40;;;8.80;99.90;;;;;;4912846;29;20040;-77
2023/12/13 04:59:34;;;;;;;0.20;0.20;;;8.90;99.90;;;;;;4917957;29;21249;-73
2023/12/13 05:02:00;;;;;;;0.85;0.60;;;8.90;99.90;;;;;;4914151;29;20032;-78
2023/12/13 05:04:25;;;;;;;2.38;0.50;;;8.90;99.90;;;;;;4914966;29;20027;-74
2023/12/13 05:06:51;;;;;;;0.22;0.22;;;8.90;99.90;;;;;;4914768;29;20040;-73
2023/12/13 05:09:17;;;;;;;1.77;0.70;;;8.80;99.90;;;;;;4915665;29;20023;-75
2023/12/13 05:11:42;;;;;;;0.95;0.85;;;8.70;99.90;;;;;;4915615;29;20028;-73
2023/12/13 05:14:08;;;;;;;1.42;0.30;;;8.60;99.90;;;;;;4915000;29;20034;-74
2023/12/13 05:16:34;;;;;;;1.25;0.35;;;8.60;99.90;;;;;;4913207;29;20094;-73
2023/12/13 05:19:00;;;;;;;3.60;0.40;;;8.60;99.90;;;;;;4909466;29;20035;-74
2023/12/13 05:21:26;;;;;;;3.38;0.80;;;8.60;99.90;;;;;;4917423;29;20023;-76
2023/12/13 05:23:51;;;;;;;0.65;0.60;;;8.60;99.90;;;;;;4925841;29;20222;-76
2023/12/13 05:26:17;;;;;;;2.45;0.63;;;8.60;99.90;;;;;;4918374;29;20016;-73
2023/12/13 05:28:43;;;;;;;0.75;0.30;;;8.70;99.90;;;;;;4911417;29;20495;-76
2023/12/13 05:31:29;;;;;;;2.08;0.45;;;8.70;99.90;;;;;;4913122;29;20029;-77
2023/12/13 05:33:54;;;;;;;1.02;0.52;;;8.70;99.90;;;;;;4911952;29;20515;-77
2023/12/13 05:36:20;;;;;;;0.40;0.30;;;8.80;99.90;;;;;;4912453;29;20114;-73
2023/12/13 05:38:46;;;;;;;3.10;0.50;;;8.90;99.90;;;;;;4910135;29;20555;-76
2023/12/13 05:41:12;;;;;;;1.13;1.02;;;9.00;99.90;;;;;;4910165;29;20232;-73
2023/12/13 05:43:38;;;;;;;0.57;0.40;;;9.00;99.90;;;;;;4908824;29;20032;-73
2023/12/13 05:46:06;;;;;;;2.67;0.70;;;9.10;99.90;;;;;;4909233;29;20080;-73
2023/12/13 05:48:32;;;;;;;2.85;0.63;;;9.10;99.90;;;;;;4909086;29;20177;-73
2023/12/13 05:51:01;;;;;;;2.78;0.40;;;9.10;99.90;;;;;;4908829;29;20123;-73
2023/12/13 05:53:27;;;;;;;2.50;0.80;;;9.00;99.90;;;;;;4911053;29;20043;-75
2023/12/13 05:55:53;;;;;;;1.17;0.60;;;8.90;99.90;;;;;;4910016;29;20066;-74
2023/12/13 05:58:19;;;;;;;1.40;0.40;;;8.80;99.90;;;;;;4912615;29;20036;-75
2023/12/13 06:00:45;;;;;;;0.85;0.30;;;8.80;99.90;;;;;;4913242;29;20143;-75
2023/12/13 06:03:10;;;;;;;1.20;0.30;;;8.80;99.90;;;;;;4912148;29;20091;-74
2023/12/13 06:05:36;;;;;;;1.35;0.85;;;8.70;99.90;;;;;;4912565;29;20047;-73
2023/12/13 06:08:02;;;;;;;0.60;0.60;;;8.70;99.90;;;;;;4915145;29;20540;-73
2023/12/13 06:10:27;;;;;;;0.30;0.30;;;8.70;99.90;;;;;;4932643;29;20190;-74
2023/12/13 06:12:53;;;;;;;0.50;0.30;;;8.70;99.90;;;;;;4931281;29;20032;-75
2023/12/13 06:15:21;;;;;;;0.98;0.40;;;8.70;99.90;;;;;;4931803;29;20047;-75
2023/12/13 06:17:47;;;;;;;0.90;0.35;;;8.60;99.90;;;;;;4930448;29;20488;-75
2023/12/13 06:20:12;;;;;;;0.88;0.30;;;8.70;99.90;;;;;;4931993;29;20071;-75
2023/12/13 06:22:38;;;;;;;2.30;0.40;;;8.60;99.90;;;;;;4932821;29;20032;-74
2023/12/13 06:25:04;;;;;;;2.83;0.38;;;8.60;99.90;;;;;;4932544;29;20101;-73
2023/12/13 06:27:30;;;;;;;4.13;0.90;;;8.50;99.90;;;;;;4931468;29;20095;-74
2023/12/13 06:29:55;;;;;;;1.48;0.40;;;8.40;99.90;;;;;;4930308;29;20198;-74
2023/12/13 06:32:21;;;;;;;1.02;0.60;;;8.40;99.90;;;;;;4931298;29;20016;-73
2023/12/13 06:34:47;;;;;;;1.75;0.32;;;8.30;99.90;;;;;;4932401;29;20035;-77
2023/12/13 06:37:12;;;;;;;0.60;0.50;;;8.40;99.90;;;;;;4931696;29;20151;-73
2023/12/13 06:39:38;;;;;;;0.77;0.30;;;8.20;99.90;;;;;;4931300;29;20063;-74
2023/12/13 06:42:05;;;;;;;1.00;0.32;;;8.10;99.90;;;;;;4935640;29;20049;-74
2023/12/13 06:44:31;;;;;;;1.35;0.32;;;8.10;99.90;;;;;;4932088;29;20294;-73
2023/12/13 06:46:57;;;;;;;3.90;0.40;;;8.10;99.90;;;;;;4930743;29;20279;-73
2023/12/13 06:49:23;;;;;;;0.90;0.40;;;8.20;99.90;;;;;;4936924;29;20078;-75
2023/12/13 06:51:50;;;;;;;3.50;0.28;;;8.20;99.90;;;;;;4935448;29;20458;-77
2023/12/13 06:54:16;;;;;;;0.20;0.20;;;8.10;99.90;;;;;;4936860;29;20036;-74
2023/12/13 06:56:41;;;;;;;4.00;0.60;;;8.20;99.90;;;;;;4936878;29;20196;-75
2023/12/13 06:59:07;;;;;;;3.38;1.50;;;8.20;99.90;;;;;;4932152;29;20187;-75
2023/12/13 07:01:33;;;;;;;1.27;0.30;;;8.40;99.90;;;;;;4936688;29;20346;-75
2023/12/13 07:04:01;;;;;;;2.25;0.60;;;8.40;99.90;;;;;;4930079;29;20050;-76
2023/12/13 07:06:26;;;;;;;0.77;0.65;;;8.50;99.90;;;;;;4931185;29;20033;-76
2023/12/13 07:08:52;;;;;;;0.30;0.30;;;8.50;99.90;;;;;;4932012;29;20126;-76
2023/12/13 07:11:18;;;;;;;0.35;0.30;;;8.60;99.90;;;;;;4937588;29;20055;-75
2023/12/13 07:13:43;;;;;;;1.52;0.95;;;8.70;99.90;;;;;;4937567;29;20019;-75
2023/12/13 07:16:09;;;;;;;1.35;0.32;;;8.80;99.90;;;;;;4935881;29;20047;-75
2023/12/13 07:18:35;;;;;;;2.75;0.95;;;8.80;99.90;;;;;;4934651;29;20523;-75
2023/12/13 07:21:00;;;;;;;0.20;0.20;;;8.90;99.90;;;;;;4944719;29;20034;-76
2023/12/13 07:23:26;;;;;;;0.22;0.13;;;9.00;99.90;;;;;;4944631;29;20062;-75
2023/12/13 07:25:52;;;;;;;1.77;0.20;;;9.10;99.90;;;;;;4943917;29;20023;-75
2023/12/13 07:28:18;;;;;;;0.40;0.30;;;9.10;99.90;;;;;;4942166;29;20055;-75
2023/12/13 07:30:44;;;;;;;0.10;0.10;;;9.10;99.90;;;;;;4941544;29;20243;-75
2023/12/13 07:33:10;;;;;;;3.70;0.30;;;9.10;99.90;;;;;;4934892;29;20032;-75
2023/12/13 07:35:35;;;;;;;0.90;0.17;;;9.10;99.90;;;;;;4941501;29;20198;-75
2023/12/13 07:38:03;;;;;;;1.08;0.25;;;9.00;99.90;;;;;;4938809;29;20074;-76
2023/12/13 07:40:29;;;;;;;0.20;0.20;;;9.20;99.90;;;;;;4938207;29;20412;-75
2023/12/13 07:42:54;;;;;;;0.57;0.20;;;9.20;99.90;;;;;;4935710;29;20103;-75
2023/12/13 07:45:22;;;;;;;0.20;0.20;;;9.20;99.90;;;;;;4936746;29;20284;-75
2023/12/13 07:47:49;;;;;;;0.10;0.10;;;9.20;99.90;;;;;;4941695;29;20024;-75
2023/12/13 07:50:14;;;;;;;1.20;0.20;;;9.30;99.90;;;;;;4933531;29;20400;-76
2023/12/13 07:52:40;;;;;;;0.52;0.10;;;9.30;99.90;;;;;;4936005;29;20031;-75
2023/12/13 07:55:06;;;;;;;1.90;0.20;;;9.30;99.90;;;;;;4935555;29;20023;-75
2023/12/13 07:57:32;;;;;;;2.17;0.20;;;9.30;99.90;;;;;;4938375;29;20032;-75
2023/12/13 07:59:57;;;;;;;0.10;0.10;;;9.20;99.90;;;;;;4936415;29;20027;-75
2023/12/13 08:02:24;;;;;;;0.00;0.00;;;9.20;99.90;;;;;;4941210;29;20024;-75
2023/12/13 08:04:49;;;;;;;0.20;0.20;;;9.20;99.90;;;;;;4937584;29;20034;-75
2023/12/13 08:07:15;;;;;;;0.00;0.00;;;9.10;99.90;;;;;;4944430;29;20031;-75
2023/12/13 08:09:41;;;;;;;1.30;0.17;;;9.00;99.90;;;;;;4944409;29;20055;-76
2023/12/13 08:12:07;;;;;;;0.10;0.10;;;8.90;99.90;;;;;;4939229;29;20039;-75
2023/12/13 08:14:33;;;;;;;1.45;0.20;;;8.80;99.90;;;;;;4937425;29;20051;-75
2023/12/13 08:17:02;;;;;;;0.30;0.10;;;8.80;99.90;;;;;;4935411;29;20405;-75
2023/12/13 08:19:27;;;;;;;0.10;0.10;;;8.80;99.90;;;;;;4934080;29;20035;-75
2023/12/13 08:21:53;;;;;;;1.05;0.30;;;8.80;99.90;;;;;;4935612;29;20302;-75
2023/12/13 08:24:19;;;;;;;0.30;0.08;;;8.70;99.90;;;;;;4931548;29;20036;-75
2023/12/13 08:26:45;;;;;;;0.73;0.10;;;8.60;99.90;;;;;;4932286;29;20284;-71
2023/12/13 08:29:11;;;;;;;0.90;0.17;;;8.50;99.90;;;;;;4935193;29;20031;-72
2023/12/13 08:31:36;;;;;;;0.22;0.10;;;8.50;99.90;;;;;;4933612;29;20324;-72
2023/12/13 08:34:02;;;;;;;0.20;0.20;;;8.40;99.90;;;;;;4933467;29;20059;-71
2023/12/13 08:36:28;;;;;;;1.08;0.20;;;8.40;99.90;;;;;;4934041;29;20346;-71
2023/12/13 08:38:54;;;;;;;0.10;0.10;;;8.40;99.90;;;;;;4933157;29;20031;-74
2023/12/13 08:41:20;;;;;;;0.10;0.10;;;8.40;99.90;;;;;;4933300;29;20023;-74
2023/12/13 08:43:46;;;;;;;0.22;0.13;;;8.40;99.90;;;;;;4933365;29;20028;-73
2023/12/13 08:46:12;;;;;;;2.15;0.30;;;8.40;99.90;;;;;;4933478;29;20091;-75
2023/12/13 08:48:38;;;;;;;0.63;0.10;;;8.40;99.90;;;;;;4932804;29;20046;-73
2023/12/13 08:51:04;;;;;;;0.10;0.10;;;8.50;99.90;;;;;;4931933;29;20063;-73
2023/12/13 08:53:29;;;;;;;0.10;0.10;;;8.50;99.90;;;;;;4931586;29;20035;-72
2023/12/13 08:55:56;;;;;;;0.35;0.35;;;8.60;99.90;;;;;;4933533;29;20255;-75
2023/12/13 08:58:21;;;;;;;0.43;0.20;;;8.60;99.90;;;;;;4931091;29;20047;-74
2023/12/13 09:00:47;;;;;;;1.10;0.20;;;8.60;99.90;;;;;;4931680;29;20024;-73
2023/12/13 09:03:13;;;;;;;0.63;0.10;;;8.60;99.90;;;;;;4933054;29;20031;-75
2023/12/13 09:05:38;;;;;;;0.38;0.10;;;8.60;99.90;;;;;;4933110;29;20031;-73
2023/12/13 09:08:04;;;;;;;0.10;0.10;;;8.70;99.90;;;;;;4930428;29;20100;-76
2023/12/13 09:10:34;;;;;;;0.25;0.20;;;8.70;99.90;;;;;;4913873;29;20055;-75
2023/12/13 09:13:03;;;;;;;1.10;0.10;;;8.70;99.90;;;;;;4913687;29;20028;-71
2023/12/13 09:15:29;;;;;;;0.20;0.17;;;8.70;99.90;;;;;;4914331;29;20047;-73
2023/12/13 09:17:55;;;;;;;0.40;0.13;;;8.70;99.90;;;;;;4914616;29;20119;-75
2023/12/13 09:20:21;;;;;;;0.10;0.10;;;8.70;99.90;;;;;;4914271;29;20445;-72
2023/12/13 09:22:46;;;;;;;0.30;0.20;;;8.80;99.90;;;;;;4914557;29;20107;-76
2023/12/13 09:25:15;;;;;;;0.15;0.15;;;8.80;99.90;;;;;;4914567;29;20487;-76
2023/12/13 09:27:42;;;;;;;0.10;0.10;;;8.90;99.90;;;;;;4914061;29;20058;-72
2023/12/13 09:30:09;;;;;;;0.10;0.10;;;9.00;99.90;;;;;;4914002;29;20020;-76
2023/12/13 09:32:35;;;;;;;0.10;0.10;;;9.00;99.90;;;;;;4914967;29;20536;-71
2023/12/13 09:35:01;;;;;;;1.13;0.30;;;9.10;99.90;;;;;;4913252;29;20168;-72
2023/12/13 09:37:27;;;;;;;0.10;0.10;;;9.10;99.90;;;;;;4914339;29;20079;-72
2023/12/13 09:39:53;;;;;;;0.60;0.30;;;9.20;99.90;;;;;;4915125;29;20087;-71
2023/12/13 09:42:18;;;;;;;0.10;0.10;;;9.30;99.90;;;;;;4918981;29;20560;-76
2023/12/13 09:44:48;;;;;;;0.90;0.30;;;9.30;99.90;;;;;;4920010;29;20027;-71
2023/12/13 09:47:16;;;;;;;0.17;0.17;;;9.40;99.90;;;;;;4914842;29;20028;-73
2023/12/13 09:49:42;;;;;;;1.27;0.13;;;9.40;99.90;;;;;;4912990;29;20031;-75
2023/12/13 09:52:09;;;;;;;0.10;0.10;;;9.40;99.90;;;;;;4913521;29;20028;-75
2023/12/13 09:54:40;;;;;;;0.35;0.20;;;9.50;99.90;;;;;;4913642;29;20115;-74
2023/12/13 09:57:06;;;;;;;0.20;0.20;;;9.40;99.90;;;;;;4913190;29;20139;-73
2023/12/13 09:59:32;;;;;;;1.75;0.20;;;9.40;99.90;;;;;;4912932;29;20508;-72
2023/12/13 10:01:58;;;;;;;0.08;0.08;;;9.40;99.90;;;;;;4913406;29;20024;-73
2023/12/13 10:04:28;;;;;;;1.02;0.20;;;9.30;99.90;;;;;;4913129;29;20401;-75
2023/12/13 10:06:54;;;;;;;;;;;9.20;99.90;;;;;;4913486;29;20024;-73
2023/12/13 10:09:19;;;;;;;0.20;0.15;;;8.90;99.90;;;;;;4924525;29;19962;-72
2023/12/13 10:11:45;;;;;;;0.60;0.20;;;8.80;99.90;;;;;;4932427;29;20424;-72
2023/12/13 10:14:12;;;;;;;0.17;0.17;;;8.60;99.90;;;;;;4932311;29;20024;-75
2023/12/13 10:16:39;;;;;;;0.13;0.13;;;8.60;99.90;;;;;;4931917;29;20075;-75
2023/12/13 10:19:06;;;;;;;1.55;0.20;;;8.50;99.90;;;;;;4931194;29;20115;-72
2023/12/13 10:21:35;;;;;;;1.27;0.52;;;8.50;99.90;;;;;;4931864;29;20019;-73
2023/12/13 10:24:01;;;;;;;;;;;8.60;99.90;;;;;;4932494;29;20023;-75
2023/12/13 10:26:27;;;;;;;0.60;0.60;;;8.60;99.90;;;;;;4931971;29;20556;-75
2023/12/13 10:28:53;;;;;;;0.73;0.20;;;8.70;99.90;;;;;;4931106;29;20469;-73
2023/12/13 10:31:22;;;;;;;0.28;0.28;;;8.80;99.90;;;;;;4930480;29;20035;-74
2023/12/13 10:33:48;;;;;;;0.65;0.47;;;8.90;99.90;;;;;;4932001;29;20027;-72
2023/12/13 10:36:14;;;;;;;0.40;0.25;;;9.10;99.90;;;;;;4931947;29;20043;-75
2023/12/13 10:38:40;;;;;;;0.20;0.20;;;9.40;99.90;;;;;;4931178;29;20028;-73
2023/12/13 10:41:09;;;;;;;0.35;0.20;;;9.60;99.90;;;;;;4931451;29;20031;-73
2023/12/13 10:43:39;;;;;;;0.85;0.10;;;9.80;99.90;;;;;;4931606;29;20067;-74
2023/12/13 10:46:05;;;;;;;0.38;0.10;;;10.00;99.90;;;;;;4931607;29;20024;-74
2023/12/13 10:48:35;;;;;;;0.20;0.20;;;10.30;99.90;;;;;;4930771;29;20086;-75
2023/12/13 10:51:02;;;;;;;0.47;0.30;;;10.40;99.90;;;;;;4931773;29;20070;-71
2023/12/13 10:53:32;;;;;;;0.20;0.20;;;10.70;99.90;;;;;;4930624;29;20027;-72
2023/12/13 10:55:59;;;;;;;0.30;0.30;;;10.90;99.90;;;;;;4930390;29;20118;-75
2023/12/13 10:58:25;;;;;;;1.40;0.75;;;11.00;99.90;;;;;;4929304;29;20062;-72
2023/12/13 11:00:52;;;;;;;0.40;0.30;;;11.20;99.90;;;;;;4930058;29;20643;-71
2023/12/13 11:03:35;;;;;;;3.03;0.60;;;11.30;99.90;;;;;;4931587;29;20034;-74
2023/12/13 11:06:05;;;;;;;0.43;0.20;;;11.30;99.90;;;;;;4930377;29;20126;-73
2023/12/13 11:08:38;;;;;;;0.85;0.30;;;11.40;99.90;;;;;;4925585;29;20036;-75
2023/12/13 11:11:06;;;;;;;1.25;0.20;;;11.30;99.90;;;;;;4912494;29;20549;-71
2023/12/13 11:13:32;;;;;;;0.43;0.40;;;11.20;99.90;;;;;;4913927;29;20424;-73
2023/12/13 11:15:58;;;;;;;2.28;0.50;;;11.10;99.90;;;;;;4910892;29;20100;-74
2023/12/13 11:18:25;;;;;;;2.08;0.40;;;10.90;99.90;;;;;;4910359;29;20505;-72
2023/12/13 11:20:58;;;;;;;1.95;0.60;;;10.90;99.90;;;;;;4912169;29;20088;-74
2023/12/13 11:23:31;;;;;;;3.30;0.52;;;10.90;99.90;;;;;;4911142;29;20029;-72
2023/12/13 11:25:57;;;;;;;2.20;0.40;;;10.80;99.90;;;;;;4912544;29;20021;-75
2023/12/13 11:28:24;;;;;;;0.65;0.55;;;10.70;99.90;;;;;;4910261;29;20030;-74
2023/12/13 11:30:50;;;;;;;4.10;0.47;;;10.70;99.90;;;;;;4910981;29;20076;-73
2023/12/13 11:33:17;;;;;;;3.53;0.95;;;10.70;99.90;;;;;;4912251;29;20048;-71
2023/12/13 11:35:45;;;;;;;3.20;0.52;;;10.60;99.90;;;;;;4912387;29;20076;-73
2023/12/13 11:38:12;;;;;;;2.20;0.50;;;10.70;99.90;;;;;;4910988;29;20744;-73
2023/12/13 11:40:40;;;;;;;4.35;1.02;;;10.70;99.90;;;;;;4911974;29;20045;-73
2023/12/13 11:43:05;;;;;;;7.97;0.50;;;10.70;99.90;;;;;;4912230;29;20045;-73
2023/12/13 11:45:31;;;;;;;2.22;0.50;;;10.80;99.90;;;;;;4911835;29;20099;-72
2023/12/13 11:48:01;;;;;;;2.17;0.47;;;10.80;99.90;;;;;;4927273;29;20114;-73
2023/12/13 11:50:27;;;;;;;3.63;0.43;;;10.70;99.90;;;;;;4930464;29;20079;-72
2023/12/13 11:52:52;;;;;;;1.20;0.73;;;10.40;99.90;;;;;;4930057;29;20032;-73
2023/12/13 11:55:22;;;;;;;5.03;0.73;;;10.20;99.90;;;;;;4929271;29;20113;-72
2023/12/13 11:57:49;;;;;;;0.98;0.73;;;10.00;99.90;;;;;;4929738;29;20035;-73
2023/12/13 12:00:18;;;;;;;3.05;0.98;;;9.90;99.90;;;;;;4934003;29;20628;-74
2023/12/13 12:02:45;;;;;;;2.00;1.65;;;10.00;99.90;;;;;;4934602;29;20090;-72
2023/12/13 12:05:12;;;;;;;3.78;0.60;;;10.00;99.90;;;;;;4934446;29;20102;-73
2023/12/13 12:07:38;;;;;;;5.70;1.42;;;9.90;99.90;;;;;;4934046;29;20035;-73
2023/12/13 12:10:05;;;;;;;4.25;0.70;;;9.80;99.90;;;;;;4933855;29;20453;-72
2023/12/13 12:12:31;;;;;;;0.98;0.32;;;9.80;99.90;;;;;;4934241;29;20016;-72
2023/12/13 12:14:56;;;;;;;4.93;0.47;;;9.80;99.90;;;;;;4938510;29;20139;-73
2023/12/13 12:17:23;;;;;;;3.50;0.60;;;9.90;99.90;;;;;;4944416;29;20047;-73
2023/12/13 12:19:51;;;;;;;1.85;0.60;;;9.90;99.90;;;;;;4943859;29;20030;-72
2023/12/13 12:22:19;;;;;;;2.42;0.32;;;9.90;99.90;;;;;;4944853;29;20033;-72
2023/12/13 12:24:51;;;;;;;0.75;0.50;;;9.70;99.90;;;;;;4939883;29;20016;-73
2023/12/13 12:27:23;;;;;;;6.30;0.60;;;9.50;99.90;;;;;;4940682;29;20102;-73
2023/12/13 12:29:48;;;;;;;4.68;1.10;;;9.50;99.90;;;;;;4934117;29;20031;-72
2023/12/13 12:32:14;;;;;;;3.42;1.13;;;9.50;99.90;;;;;;4936795;29;20031;-72
2023/12/13 12:34:40;;;;;;;1.15;0.28;;;9.50;99.90;;;;;;4931538;29;20111;-72
2023/12/13 12:37:06;;;;;;;2.38;0.43;;;9.40;99.90;;;;;;4925659;29;20031;-72
2023/12/13 12:39:32;;;;;;;4.57;0.63;;;9.40;99.90;;;;;;4929921;29;20055;-72
2023/12/13 12:41:58;;;;;;;1.92;0.38;;;9.40;99.90;;;;;;4941547;29;20028;-72
2023/12/13 12:44:24;;;;;;;2.47;0.63;;;9.40;99.90;;;;;;4933204;29;20032;-73
2023/12/13 12:46:50;;;;;;;2.38;0.32;;;9.30;99.90;;;;;;4937832;29;20551;-73
2023/12/13 12:49:15;;;;;;;2.65;0.70;;;9.10;99.90;;;;;;4927459;29;20024;-75
2023/12/13 12:51:41;;;;;;;0.40;0.30;;;8.60;99.90;;;;;;4921678;29;20045;-75